Airfield :
LOGIN :

Register | Disclaimer

   EN    FR    IT 

 










Legend :    VFR   Marginal VFR   IFR   Intensive IFR   Very Intensive IFR
Visi :
Ceiling :
>= 8 km
>= 3000ft
5 to 8 km
1000 to 3000 ft
1500m to 5 km
500 to 1000 ft
800 to 1500m
200 to 500 ft
< 800m
< 200 ft
Symbols :   Thunderstorms  Fog  Heavy snow  Heavy precipitations  Wind > 20 kt
SIGMETs :     Misc.  Thunderstorms  Icing  Turbulence  Mountain Waves  Volcanic Ashes







- Airport Elevation : 197 ft
- IATA code : XOG
- Download approach charts


LFMO - Orange

CURRENT METAR :
  • 200900Z AUTO 34017KT CAVOK 08/02 Q1023 BECMG 34015G25KT

EXPIRED METARs :
  • 200830Z AUTO 34019KT CAVOK 08/02 Q1023 BECMG 34015G25KT
  • 200800Z AUTO 32011KT 260V020 CAVOK 07/02 Q1023
  • 200730Z AUTO 35014G25KT 310V020 CAVOK 06/02 Q1022 BECMG 34025G35KT
  • 200700Z AUTO 36014G27KT CAVOK 06/02 Q1022 BECMG 34025G35KT
  • 200630Z AUTO 36015G28KT 330V040 CAVOK 06/02 Q1022 BECMG 34025G35KT

TAF TAF LFMO
Valid from the 20 at 09:00 until the 21 at 09:00 UTC


200800Z 2009/2109 34015G25KT CAVOK
BECMG 2020/2022 34015KT
No reported NOTAMs for that airfield.



MET'MAP, your aeronautical weather chart ! - Copyright ORBIFLY December 2007 - Disclaimer

ORBIFLY MET'MAP TEAM :

Programming & Development : Alexandra Zaïnal
Concept & Development : Baudouin d'Aumeries
Co-Development & Prog : Marc-Olivier Méhu
Technical & hardware support : Manuel Goepfert

Contact : metmap@orbifly.com




SOURCES & CREDITS :

   NOAA